Time;durP1;ratioP1;P1;durP2;ratioP2;P2;SDS_P1;SDS_P2;PMS_P1;PMS_P2;Temp;Humidity;BMP_temperature;BMP_pressure;BME280_temperature;BME280_humidity;BME280_pressure;Samples;Min_cycle;Max_cycle;Signal;HPM_P1;HPM_P2
2022/09/24 00:00:18;;;;;;;5.97;3.90;;;;;;;;;;2089214;28;20036;-78
2022/09/24 00:01:37;;;;;;;6.35;4.28;;;;;;;;;;2089291;28;20029;-79
2022/09/24 00:02:56;;;;;;;6.10;4.70;;;;;;;;;;2087008;28;20064;-78
2022/09/24 00:04:15;;;;;;;6.38;5.05;;;;;;;;;;2087471;28;20057;-78
2022/09/24 00:05:38;;;;;;;8.05;4.47;;;;;;;;;;2084675;28;20958;-78
2022/09/24 00:06:57;;;;;;;5.10;4.53;;;;;;;;;;2086600;28;20029;-78
2022/09/24 00:08:18;;;;;;;5.20;3.85;;;;;;;;;;2086728;28;20029;-78
2022/09/24 00:09:37;;;;;;;6.05;4.72;;;;;;;;;;2086106;28;20497;-78
2022/09/24 00:10:56;;;;;;;4.43;3.95;;;;;;;;;;2091176;28;20103;-78
2022/09/24 00:12:14;;;;;;;6.43;3.55;;;;;;;;;;2091093;28;20033;-78
2022/09/24 00:13:34;;;;;;;4.05;3.50;;;;;;;;;;2084207;28;20037;-78
2022/09/24 00:14:53;;;;;;;4.45;3.70;;;;;;;;;;2087770;28;20036;-78
2022/09/24 00:16:13;;;;;;;3.95;3.65;;;;;;;;;;2091192;28;20029;-78
2022/09/24 00:17:32;;;;;;;3.85;3.55;;;;;;;;;;2089315;28;20036;-78
2022/09/24 00:18:51;;;;;;;7.13;4.28;;;;;;;;;;2085841;28;20390;-79
2022/09/24 00:20:11;;;;;;;4.60;4.07;;;;;;;;;;2086445;28;20041;-79
2022/09/24 00:21:32;;;;;;;4.10;3.80;;;;;;;;;;2088498;28;20029;-78
2022/09/24 00:22:50;;;;;;;4.75;3.88;;;;;;;;;;2085450;28;20485;-78
2022/09/24 00:26:48;;;;;;;5.20;4.30;;;;;;;;;;2083080;28;20116;-78
2022/09/24 00:27:29;;;;;;;4.85;3.78;;;;;;;;;;2086622;28;20033;-78
2022/09/24 00:28:51;;;;;;;4.57;3.90;;;;;;;;;;2084013;28;20598;-78
2022/09/24 00:30:10;;;;;;;5.70;3.65;;;;;;;;;;2084599;28;20037;-78
2022/09/24 00:31:30;;;;;;;6.40;3.80;;;;;;;;;;2091727;28;20040;-78
2022/09/24 00:32:49;;;;;;;4.63;4.18;;;;;;;;;;2084991;28;20124;-78
2022/09/24 00:34:08;;;;;;;7.35;4.43;;;;;;;;;;2087548;28;20028;-78
2022/09/24 00:35:27;;;;;;;5.57;4.00;;;;;;;;;;2086802;28;20036;-78
2022/09/24 00:36:46;;;;;;;4.53;4.13;;;;;;;;;;2088349;28;20067;-78
2022/09/24 00:38:05;;;;;;;4.68;4.25;;;;;;;;;;2082893;28;20040;-78
2022/09/24 00:39:24;;;;;;;4.05;3.78;;;;;;;;;;2084323;28;20060;-78
2022/09/24 00:40:43;;;;;;;4.18;3.88;;;;;;;;;;2087618;28;20029;-78
2022/09/24 00:42:02;;;;;;;3.97;3.40;;;;;;;;;;2087929;28;20032;-79
2022/09/24 00:43:22;;;;;;;5.72;3.40;;;;;;;;;;2086901;28;20045;-78
2022/09/24 00:44:44;;;;;;;6.68;3.78;;;;;;;;;;2088087;28;20037;-78
2022/09/24 00:46:13;;;;;;;4.32;3.90;;;;;;;;;;2085775;28;20025;-79
2022/09/24 00:47:34;;;;;;;3.88;3.58;;;;;;;;;;2085626;28;20029;-79
2022/09/24 00:48:56;;;;;;;5.15;3.90;;;;;;;;;;2085447;28;20025;-79
2022/09/24 00:50:18;;;;;;;5.78;4.15;;;;;;;;;;2086676;28;20399;-79
2022/09/24 00:51:37;;;;;;;6.63;4.55;;;;;;;;;;2085102;28;20498;-79
2022/09/24 00:52:56;;;;;;;5.28;3.80;;;;;;;;;;2082274;28;20033;-79
2022/09/24 00:54:18;;;;;;;5.03;4.10;;;;;;;;;;2085006;28;20037;-79
2022/09/24 00:55:38;;;;;;;5.28;3.95;;;;;;;;;;2085825;28;20513;-79
2022/09/24 00:56:58;;;;;;;4.93;4.25;;;;;;;;;;2086250;28;20428;-79
2022/09/24 00:58:18;;;;;;;5.18;4.68;;;;;;;;;;2084014;28;20522;-79
2022/09/24 00:59:37;;;;;;;4.47;3.95;;;;;;;;;;2086341;28;20049;-79
2022/09/24 01:01:06;;;;;;;4.95;4.45;;;;;;;;;;2084823;28;20108;-78
2022/09/24 01:02:24;;;;;;;4.95;4.50;;;;;;;;;;2091926;28;20417;-78
2022/09/24 01:03:45;;;;;;;5.50;3.97;;;;;;;;;;2089838;28;20108;-78
2022/09/24 01:05:04;;;;;;;5.68;4.10;;;;;;;;;;2086479;28;20025;-78
2022/09/24 01:06:24;;;;;;;7.70;4.15;;;;;;;;;;2087625;28;20445;-77
2022/09/24 01:07:46;;;;;;;4.35;3.55;;;;;;;;;;2084800;28;20086;-78
2022/09/24 01:09:06;;;;;;;5.78;4.13;;;;;;;;;;2085847;28;20029;-77
2022/09/24 01:10:46;;;;;;;6.65;3.83;;;;;;;;;;2084735;28;20425;-77
2022/09/24 01:12:05;;;;;;;5.28;4.07;;;;;;;;;;2087759;28;20088;-77
2022/09/24 01:13:31;;;;;;;4.80;3.72;;;;;;;;;;2092686;28;20041;-77
2022/09/24 01:15:01;;;;;;;5.07;3.65;;;;;;;;;;2084824;28;20029;-77
2022/09/24 01:16:39;;;;;;;7.32;4.10;;;;;;;;;;2086558;28;20064;-77
2022/09/24 01:18:01;;;;;;;3.72;3.40;;;;;;;;;;2084941;28;20044;-77
2022/09/24 01:19:26;;;;;;;8.52;3.45;;;;;;;;;;2089976;28;20062;-77
2022/09/24 01:20:48;;;;;;;4.68;3.67;;;;;;;;;;2089865;28;20108;-77
2022/09/24 01:22:25;;;;;;;5.18;3.88;;;;;;;;;;2085784;28;20452;-77
2022/09/24 01:24:07;;;;;;;4.38;3.97;;;;;;;;;;2083834;28;20021;-77
2022/09/24 01:25:45;;;;;;;7.75;4.10;;;;;;;;;;2087421;28;20037;-77
2022/09/24 01:27:23;;;;;;;4.88;3.88;;;;;;;;;;2085105;28;20025;-79
2022/09/24 01:29:04;;;;;;;4.20;3.70;;;;;;;;;;2086125;28;20033;-79
2022/09/24 01:30:24;;;;;;;6.95;3.97;;;;;;;;;;2085999;28;21386;-79
2022/09/24 01:31:48;;;;;;;6.55;4.13;;;;;;;;;;2089069;28;20382;-79
2022/09/24 01:33:11;;;;;;;6.97;4.25;;;;;;;;;;2086582;28;20211;-77
2022/09/24 01:34:30;;;;;;;;;;;;;;;;;;2089227;28;20393;-77
2022/09/24 01:35:51;;;;;;;5.97;3.53;;;;;;;;;;2088218;28;19908;-77
2022/09/24 01:37:13;;;;;;;4.18;3.60;;;;;;;;;;2088418;28;20104;-77
2022/09/24 01:38:36;;;;;;;7.88;3.97;;;;;;;;;;2086187;28;20401;-79
2022/09/24 01:39:57;;;;;;;4.18;3.28;;;;;;;;;;2094592;28;20536;-79
2022/09/24 01:41:16;;;;;;;5.85;3.55;;;;;;;;;;2092081;28;20033;-79
2022/09/24 01:42:37;;;;;;;6.88;3.20;;;;;;;;;;2089955;28;20477;-80
2022/09/24 01:43:57;;;;;;;4.03;3.38;;;;;;;;;;2087835;28;20036;-79
2022/09/24 01:45:16;;;;;;;3.25;2.90;;;;;;;;;;2087090;28;20493;-80
2022/09/24 01:46:39;;;;;;;6.63;3.63;;;;;;;;;;2085859;28;20068;-79
2022/09/24 01:47:59;;;;;;;4.93;4.07;;;;;;;;;;2085854;28;20480;-80
2022/09/24 01:49:18;;;;;;;6.55;4.35;;;;;;;;;;2088608;28;20021;-80
2022/09/24 01:50:47;;;;;;;4.68;4.25;;;;;;;;;;2085229;28;20017;-79
2022/09/24 01:52:09;;;;;;;5.97;3.67;;;;;;;;;;2086955;28;20033;-80
2022/09/24 01:53:30;;;;;;;6.82;3.92;;;;;;;;;;2085618;28;20033;-80
2022/09/24 01:54:51;;;;;;;6.00;3.47;;;;;;;;;;2090150;28;20029;-79
2022/09/24 01:56:20;;;;;;;6.05;3.70;;;;;;;;;;2096638;28;20029;-79
2022/09/24 01:57:42;;;;;;;4.78;3.47;;;;;;;;;;2086808;28;20025;-79
2022/09/24 01:59:03;;;;;;;4.40;3.70;;;;;;;;;;2087433;28;20028;-79
2022/09/24 02:00:22;;;;;;;3.40;3.05;;;;;;;;;;2085027;28;20631;-79
2022/09/24 02:01:44;;;;;;;6.47;3.20;;;;;;;;;;2089863;28;20025;-79
2022/09/24 02:03:10;;;;;;;3.25;2.95;;;;;;;;;;2089960;28;20025;-80
2022/09/24 02:04:32;;;;;;;3.83;3.25;;;;;;;;;;2088160;28;20029;-80
2022/09/24 02:06:17;;;;;;;4.63;3.35;;;;;;;;;;2087271;28;20025;-79
2022/09/24 02:07:39;;;;;;;4.47;3.38;;;;;;;;;;2086353;28;20033;-80
2022/09/24 02:08:58;;;;;;;5.53;3.22;;;;;;;;;;2084411;28;20510;-79
2022/09/24 02:10:19;;;;;;;7.95;3.38;;;;;;;;;;2084957;28;20033;-80
2022/09/24 02:11:38;;;;;;;6.65;2.85;;;;;;;;;;2084875;28;20116;-80
2022/09/24 02:13:00;;;;;;;6.35;3.03;;;;;;;;;;2086403;28;20501;-79
2022/09/24 02:14:19;;;;;;;3.50;3.00;;;;;;;;;;2087362;28;21047;-80
2022/09/24 02:15:40;;;;;;;4.10;3.03;;;;;;;;;;2085510;28;20266;-80
2022/09/24 02:17:01;;;;;;;4.82;2.90;;;;;;;;;;2089862;28;20028;-79
2022/09/24 02:18:22;;;;;;;2.97;2.60;;;;;;;;;;2096183;28;20025;-79
2022/09/24 02:19:41;;;;;;;6.10;3.33;;;;;;;;;;2085075;28;20069;-79
2022/09/24 02:21:02;;;;;;;3.05;2.47;;;;;;;;;;2083070;28;20033;-79
2022/09/24 02:22:22;;;;;;;4.75;2.92;;;;;;;;;;2088295;28;20025;-79
2022/09/24 02:23:49;;;;;;;5.10;3.30;;;;;;;;;;2085099;28;20199;-79
2022/09/24 02:25:14;;;;;;;2.63;2.42;;;;;;;;;;2088993;28;20033;-79
2022/09/24 02:26:33;;;;;;;5.57;3.03;;;;;;;;;;2095737;28;20024;-79
2022/09/24 02:27:52;;;;;;;4.93;3.00;;;;;;;;;;2084891;28;20047;-79
2022/09/24 02:29:11;;;;;;;6.20;3.00;;;;;;;;;;2086074;28;20045;-79
2022/09/24 02:30:36;;;;;;;4.07;2.83;;;;;;;;;;2085133;28;20045;-79
2022/09/24 02:31:56;;;;;;;2.90;2.65;;;;;;;;;;2088052;28;20057;-79
2022/09/24 02:34:54;;;;;;;5.43;2.50;;;;;;;;;;2086236;28;20033;-79
2022/09/24 02:36:13;;;;;;;4.25;2.70;;;;;;;;;;2088392;28;20025;-79
2022/09/24 02:37:33;;;;;;;3.33;2.85;;;;;;;;;;2086537;28;20592;-79
2022/09/24 02:38:52;;;;;;;4.22;3.20;;;;;;;;;;2081122;28;20103;-79
2022/09/24 02:40:12;;;;;;;7.25;2.95;;;;;;;;;;2085159;28;20513;-79
2022/09/24 02:41:32;;;;;;;5.22;2.95;;;;;;;;;;2087694;28;20033;-79
2022/09/24 02:42:50;;;;;;;3.65;3.35;;;;;;;;;;2088106;28;20053;-79
2022/09/24 02:44:09;;;;;;;4.38;2.97;;;;;;;;;;2083427;28;20036;-79
2022/09/24 02:45:28;;;;;;;3.28;2.97;;;;;;;;;;2081335;28;20155;-79
2022/09/24 02:46:49;;;;;;;4.97;3.10;;;;;;;;;;2084234;28;20033;-79
2022/09/24 02:48:08;;;;;;;3.30;3.00;;;;;;;;;;2090738;28;20486;-79
2022/09/24 02:49:27;;;;;;;3.63;3.22;;;;;;;;;;2089307;28;20136;-79
2022/09/24 02:50:46;;;;;;;3.97;3.05;;;;;;;;;;2087749;28;20112;-79
2022/09/24 02:52:05;;;;;;;4.45;3.50;;;;;;;;;;2088614;28;20037;-79
2022/09/24 02:53:24;;;;;;;6.35;3.10;;;;;;;;;;2087431;28;20037;-79
2022/09/24 02:54:43;;;;;;;6.18;3.13;;;;;;;;;;2084767;28;20095;-79
2022/09/24 02:56:02;;;;;;;3.97;3.55;;;;;;;;;;2088991;28;20382;-79
2022/09/24 02:57:21;;;;;;;3.58;3.28;;;;;;;;;;2087738;28;20765;-79
2022/09/24 02:58:42;;;;;;;3.85;3.35;;;;;;;;;;2087654;28;20022;-79
2022/09/24 03:00:01;;;;;;;4.05;3.67;;;;;;;;;;2087915;28;20041;-79
2022/09/24 03:01:21;;;;;;;4.60;3.88;;;;;;;;;;2087486;28;20025;-79
2022/09/24 03:02:40;;;;;;;6.07;3.58;;;;;;;;;;2083350;28;20037;-79
2022/09/24 03:03:59;;;;;;;5.32;3.30;;;;;;;;;;2088145;28;20025;-79
2022/09/24 03:05:18;;;;;;;4.28;3.88;;;;;;;;;;2088698;28;20510;-79
2022/09/24 03:06:36;;;;;;;3.92;3.50;;;;;;;;;;2087903;28;20029;-79
2022/09/24 03:07:57;;;;;;;4.63;3.20;;;;;;;;;;2086622;28;20033;-79
2022/09/24 03:09:16;;;;;;;3.47;3.28;;;;;;;;;;2085630;28;20128;-79
2022/09/24 03:10:35;;;;;;;6.07;3.28;;;;;;;;;;2088557;28;20390;-79
2022/09/24 03:11:59;;;;;;;4.18;2.97;;;;;;;;;;2088316;28;20466;-79
2022/09/24 03:13:18;;;;;;;6.78;4.05;;;;;;;;;;2088967;28;20021;-79
2022/09/24 03:14:37;;;;;;;4.22;3.47;;;;;;;;;;2087062;28;20033;-79
2022/09/24 03:15:56;;;;;;;3.42;3.20;;;;;;;;;;2084536;28;20021;-79
2022/09/24 03:17:15;;;;;;;3.17;2.88;;;;;;;;;;2084606;28;20425;-79
2022/09/24 03:18:34;;;;;;;4.28;3.25;;;;;;;;;;2086207;28;20533;-79
2022/09/24 03:19:53;;;;;;;4.78;2.95;;;;;;;;;;2084253;28;20533;-79
2022/09/24 03:21:12;;;;;;;4.75;2.95;;;;;;;;;;2083903;28;20477;-79
2022/09/24 03:22:31;;;;;;;5.97;2.92;;;;;;;;;;2086235;28;20522;-79
2022/09/24 03:23:50;;;;;;;6.55;3.05;;;;;;;;;;2087404;28;20025;-79
2022/09/24 03:25:09;;;;;;;6.15;3.25;;;;;;;;;;2085373;28;20017;-79
2022/09/24 03:26:28;;;;;;;4.85;3.20;;;;;;;;;;2087024;28;20032;-79
2022/09/24 03:27:47;;;;;;;3.95;3.30;;;;;;;;;;2083982;28;20042;-79
2022/09/24 03:29:07;;;;;;;3.45;3.13;;;;;;;;;;2087359;28;20032;-79
2022/09/24 03:32:04;;;;;;;3.33;2.95;;;;;;;;;;2088022;28;20612;-79
2022/09/24 03:33:23;;;;;;;5.22;3.28;;;;;;;;;;2087814;28;20037;-80
2022/09/24 03:34:42;;;;;;;4.45;3.20;;;;;;;;;;2087302;28;20472;-80
2022/09/24 03:36:11;;;;;;;4.65;3.42;;;;;;;;;;2086379;28;20107;-80
2022/09/24 03:37:32;;;;;;;5.05;3.22;;;;;;;;;;2085442;28;20041;-79
2022/09/24 03:38:54;;;;;;;5.75;2.92;;;;;;;;;;2088020;28;20049;-79
2022/09/24 03:40:13;;;;;;;4.95;3.78;;;;;;;;;;2083941;28;20032;-79
2022/09/24 03:41:32;;;;;;;3.60;2.53;;;;;;;;;;2087146;28;20028;-79
2022/09/24 03:42:51;;;;;;;4.18;3.08;;;;;;;;;;2087660;28;20033;-79
2022/09/24 03:44:10;;;;;;;3.70;3.40;;;;;;;;;;2088991;28;20060;-79
2022/09/24 03:45:29;;;;;;;4.28;3.40;;;;;;;;;;2082082;28;21338;-79
2022/09/24 03:46:48;;;;;;;6.25;3.60;;;;;;;;;;2085780;28;20037;-79
2022/09/24 03:48:08;;;;;;;3.58;3.05;;;;;;;;;;2086294;28;20021;-79
2022/09/24 03:49:27;;;;;;;3.42;2.72;;;;;;;;;;2087677;28;20033;-79
2022/09/24 03:50:46;;;;;;;4.55;3.20;;;;;;;;;;2087315;28;20445;-79
2022/09/24 03:52:04;;;;;;;3.70;3.03;;;;;;;;;;2087206;28;20506;-79
2022/09/24 03:53:23;;;;;;;3.25;2.90;;;;;;;;;;2087603;28;20037;-79
2022/09/24 03:54:42;;;;;;;3.20;2.90;;;;;;;;;;2084628;28;20029;-79
2022/09/24 03:56:01;;;;;;;5.38;2.97;;;;;;;;;;2082674;28;20025;-79
2022/09/24 03:57:20;;;;;;;3.38;3.00;;;;;;;;;;2087864;28;20033;-79
2022/09/24 03:58:39;;;;;;;4.00;2.90;;;;;;;;;;2087474;28;20490;-79
2022/09/24 03:59:58;;;;;;;3.47;3.17;;;;;;;;;;2087767;28;20438;-79
2022/09/24 04:01:20;;;;;;;6.20;2.85;;;;;;;;;;2088712;28;20021;-79
2022/09/24 04:02:39;;;;;;;5.25;3.13;;;;;;;;;;2088871;28;20021;-78
2022/09/24 04:03:59;;;;;;;4.90;3.30;;;;;;;;;;2087364;28;20025;-79
2022/09/24 04:05:18;;;;;;;3.40;3.20;;;;;;;;;;2085435;28;20033;-79
2022/09/24 04:06:37;;;;;;;3.22;2.92;;;;;;;;;;2085454;28;20026;-79
2022/09/24 04:07:56;;;;;;;2.95;2.67;;;;;;;;;;2086324;28;20033;-79
2022/09/24 04:09:15;;;;;;;3.10;2.83;;;;;;;;;;2087426;28;20025;-79
2022/09/24 04:10:34;;;;;;;4.57;3.00;;;;;;;;;;2084759;28;20108;-79
2022/09/24 04:11:53;;;;;;;4.10;3.13;;;;;;;;;;2086851;28;20040;-79
2022/09/24 04:13:12;;;;;;;6.22;3.13;;;;;;;;;;2088835;28;20080;-79
2022/09/24 04:14:31;;;;;;;2.67;2.47;;;;;;;;;;2082095;28;20028;-79
2022/09/24 04:15:50;;;;;;;4.65;2.75;;;;;;;;;;2083732;28;20512;-79
2022/09/24 04:17:09;;;;;;;4.32;3.47;;;;;;;;;;2088105;28;20041;-79
2022/09/24 04:18:27;;;;;;;3.08;2.75;;;;;;;;;;2083753;28;20513;-79
2022/09/24 04:19:46;;;;;;;4.32;2.78;;;;;;;;;;2081618;28;20514;-79
2022/09/24 04:21:05;;;;;;;3.35;2.50;;;;;;;;;;2087483;28;20493;-79
2022/09/24 04:22:24;;;;;;;4.75;3.10;;;;;;;;;;2089683;28;20497;-79
2022/09/24 04:23:44;;;;;;;3.00;2.70;;;;;;;;;;2087089;28;20021;-79
2022/09/24 04:25:03;;;;;;;3.75;3.35;;;;;;;;;;2086035;28;20025;-79
2022/09/24 04:26:22;;;;;;;4.25;3.17;;;;;;;;;;2085771;28;20041;-79
2022/09/24 04:27:42;;;;;;;3.33;2.72;;;;;;;;;;2086337;28;20037;-79
2022/09/24 04:29:01;;;;;;;4.53;3.03;;;;;;;;;;2087365;28;20028;-79
2022/09/24 04:30:20;;;;;;;3.45;3.15;;;;;;;;;;2084137;28;20040;-79
2022/09/24 04:31:39;;;;;;;4.93;3.15;;;;;;;;;;2086309;28;20037;-79
2022/09/24 04:33:01;;;;;;;2.80;2.60;;;;;;;;;;2087532;28;20033;-79
2022/09/24 04:34:20;;;;;;;4.63;3.15;;;;;;;;;;2085155;28;20041;-79
2022/09/24 04:35:39;;;;;;;3.67;3.03;;;;;;;;;;2085296;28;20040;-79
2022/09/24 04:36:58;;;;;;;4.55;3.10;;;;;;;;;;2088739;28;20032;-79
2022/09/24 04:38:19;;;;;;;7.25;3.20;;;;;;;;;;2084351;28;20029;-79
2022/09/24 04:39:38;;;;;;;3.63;3.30;;;;;;;;;;2086343;28;20029;-79
2022/09/24 04:41:06;;;;;;;4.85;3.53;;;;;;;;;;2083784;28;20033;-79
2022/09/24 04:42:25;;;;;;;9.50;4.82;;;;;;;;;;2081946;28;20037;-79
2022/09/24 04:43:46;;;;;;;9.23;4.93;;;;;;;;;;2083328;28;20103;-80
2022/09/24 04:45:06;;;;;;;5.45;4.28;;;;;;;;;;2091301;28;20029;-80
2022/09/24 04:46:26;;;;;;;4.65;3.67;;;;;;;;;;2085554;28;20029;-79
2022/09/24 04:47:56;;;;;;;7.15;3.70;;;;;;;;;;2079100;28;20067;-79
2022/09/24 04:49:15;;;;;;;5.10;3.20;;;;;;;;;;2081587;28;20025;-80
2022/09/24 04:50:34;;;;;;;4.82;3.53;;;;;;;;;;2084674;28;20413;-80
2022/09/24 04:51:53;;;;;;;3.45;2.92;;;;;;;;;;2082759;28;20040;-80
2022/09/24 04:53:12;;;;;;;4.47;3.25;;;;;;;;;;2086327;28;20048;-80
2022/09/24 04:54:31;;;;;;;3.50;3.20;;;;;;;;;;2086418;28;20112;-80
2022/09/24 04:55:49;;;;;;;5.05;3.63;;;;;;;;;;2080159;28;20107;-79
2022/09/24 04:57:08;;;;;;;4.47;2.88;;;;;;;;;;2081583;28;20033;-80
2022/09/24 04:58:27;;;;;;;3.85;3.08;;;;;;;;;;2081877;28;20033;-79
2022/09/24 04:59:46;;;;;;;3.50;3.10;;;;;;;;;;2083080;28;20029;-79
2022/09/24 05:01:05;;;;;;;4.03;2.88;;;;;;;;;;2087561;28;20025;-80
2022/09/24 05:02:24;;;;;;;6.47;3.33;;;;;;;;;;2086775;28;20112;-79
2022/09/24 05:03:43;;;;;;;4.97;3.35;;;;;;;;;;2083754;28;20505;-79
2022/09/24 05:05:02;;;;;;;4.28;3.20;;;;;;;;;;2088369;28;20417;-76
2022/09/24 05:06:21;;;;;;;3.60;3.20;;;;;;;;;;2085003;28;20033;-77
2022/09/24 05:07:40;;;;;;;3.30;3.00;;;;;;;;;;2083799;28;20021;-80
2022/09/24 05:08:59;;;;;;;3.35;3.05;;;;;;;;;;2083069;28;20029;-79
2022/09/24 05:10:18;;;;;;;4.97;3.20;;;;;;;;;;2083969;28;20104;-80
2022/09/24 05:11:37;;;;;;;5.88;3.50;;;;;;;;;;2084737;28;20025;-79
2022/09/24 05:12:56;;;;;;;4.95;3.17;;;;;;;;;;2082815;28;20029;-80
2022/09/24 05:14:15;;;;;;;9.55;3.10;;;;;;;;;;2086005;28;20037;-78
2022/09/24 05:15:34;;;;;;;9.27;3.00;;;;;;;;;;2083247;28;20025;-78
2022/09/24 05:16:53;;;;;;;7.25;3.35;;;;;;;;;;2081493;28;20033;-78
2022/09/24 05:18:12;;;;;;;6.72;3.42;;;;;;;;;;2086103;28;20036;-81
2022/09/24 05:19:32;;;;;;;4.15;2.90;;;;;;;;;;2090694;28;20116;-79
2022/09/24 05:20:51;;;;;;;3.15;2.85;;;;;;;;;;2083237;28;20044;-78
2022/09/24 05:22:10;;;;;;;3.85;3.03;;;;;;;;;;2079167;28;20029;-79
2022/09/24 05:23:29;;;;;;;3.15;2.90;;;;;;;;;;2081659;28;20067;-81
2022/09/24 05:24:47;;;;;;;4.30;2.83;;;;;;;;;;2086344;28;20422;-79
2022/09/24 05:27:48;;;;;;;5.00;2.47;;;;;;;;;;2085010;28;20026;-79
2022/09/24 05:29:07;;;;;;;2.95;2.63;;;;;;;;;;2082034;28;20029;-80
2022/09/24 05:30:26;;;;;;;3.05;2.65;;;;;;;;;;2082614;28;20485;-80
2022/09/24 05:31:45;;;;;;;7.05;3.45;;;;;;;;;;2078639;28;20038;-80
2022/09/24 05:33:04;;;;;;;3.95;2.92;;;;;;;;;;2079421;28;20025;-79
2022/09/24 05:34:23;;;;;;;5.22;2.90;;;;;;;;;;2088476;28;20389;-79
2022/09/24 05:35:42;;;;;;;3.40;3.10;;;;;;;;;;2086920;28;20104;-83
2022/09/24 05:37:01;;;;;;;6.32;3.67;;;;;;;;;;2085340;28;20045;-86
2022/09/24 05:38:20;;;;;;;5.97;3.30;;;;;;;;;;2086256;28;20029;-82
2022/09/24 05:39:39;;;;;;;4.18;3.00;;;;;;;;;;2081867;28;20033;-80
2022/09/24 05:40:58;;;;;;;3.83;3.42;;;;;;;;;;2083119;28;20073;-80
2022/09/24 05:42:17;;;;;;;3.10;2.72;;;;;;;;;;2086486;28;20101;-80
2022/09/24 05:43:36;;;;;;;9.38;3.17;;;;;;;;;;2086996;28;20045;-80
2022/09/24 05:44:55;;;;;;;5.20;2.85;;;;;;;;;;2087277;28;20474;-80
2022/09/24 05:46:14;;;;;;;6.32;3.30;;;;;;;;;;2085124;28;20115;-81
2022/09/24 05:47:33;;;;;;;6.82;3.30;;;;;;;;;;2083286;28;20037;-79
2022/09/24 05:48:52;;;;;;;3.67;3.17;;;;;;;;;;2087515;28;20025;-78
2022/09/24 05:50:12;;;;;;;3.53;2.88;;;;;;;;;;2086565;28;20033;-79
2022/09/24 05:51:31;;;;;;;6.85;3.58;;;;;;;;;;2087851;28;20060;-80
2022/09/24 05:52:50;;;;;;;3.55;2.60;;;;;;;;;;2083815;28;20083;-79
2022/09/24 05:54:10;;;;;;;6.25;3.20;;;;;;;;;;2086223;28;20149;-79
2022/09/24 05:55:29;;;;;;;4.80;3.30;;;;;;;;;;2084106;28;20056;-79
2022/09/24 05:56:48;;;;;;;7.53;3.33;;;;;;;;;;2086547;28;20112;-79
2022/09/24 05:58:09;;;;;;;2.72;2.50;;;;;;;;;;2085228;28;20036;-80
2022/09/24 05:59:28;;;;;;;4.88;2.95;;;;;;;;;;2086415;28;20056;-80
2022/09/24 06:00:47;;;;;;;3.85;2.90;;;;;;;;;;2084987;28;20029;-80
2022/09/24 06:02:07;;;;;;;4.85;2.80;;;;;;;;;;2086482;28;20017;-81
2022/09/24 06:03:28;;;;;;;3.78;2.90;;;;;;;;;;2085719;28;20342;-80
2022/09/24 06:04:47;;;;;;;4.35;2.90;;;;;;;;;;2089110;28;20025;-80
2022/09/24 06:06:06;;;;;;;4.38;3.00;;;;;;;;;;2089496;28;20028;-80
2022/09/24 06:07:25;;;;;;;6.88;3.15;;;;;;;;;;2087606;28;20029;-79
2022/09/24 06:08:44;;;;;;;4.90;2.83;;;;;;;;;;2089110;28;20037;-79
2022/09/24 06:10:04;;;;;;;3.33;2.75;;;;;;;;;;2084291;28;20049;-79
2022/09/24 06:11:23;;;;;;;2.90;2.70;;;;;;;;;;2086334;28;20405;-81
2022/09/24 06:12:42;;;;;;;2.63;2.42;;;;;;;;;;2084022;28;20048;-79
2022/09/24 06:14:04;;;;;;;6.18;3.00;;;;;;;;;;2085565;28;20029;-79
2022/09/24 06:15:23;;;;;;;5.88;2.92;;;;;;;;;;2082862;28;20649;-80
2022/09/24 06:16:42;;;;;;;3.20;2.47;;;;;;;;;;2078153;28;20024;-80
2022/09/24 06:18:01;;;;;;;5.00;3.00;;;;;;;;;;2081974;28;20484;-80
2022/09/24 06:19:20;;;;;;;4.90;3.25;;;;;;;;;;2086907;28;20124;-80
2022/09/24 06:20:39;;;;;;;3.03;2.75;;;;;;;;;;2083801;28;20116;-79
2022/09/24 06:21:58;;;;;;;4.25;2.88;;;;;;;;;;2084155;28;20478;-80
2022/09/24 06:23:17;;;;;;;6.30;3.53;;;;;;;;;;2083598;28;20036;-78
2022/09/24 06:24:36;;;;;;;3.00;2.70;;;;;;;;;;2087550;28;20021;-78
2022/09/24 06:25:55;;;;;;;4.00;3.25;;;;;;;;;;2087677;28;20100;-77
2022/09/24 06:27:14;;;;;;;4.25;3.47;;;;;;;;;;2085684;28;20025;-78
2022/09/24 06:28:33;;;;;;;4.22;3.30;;;;;;;;;;2092171;28;20032;-78
2022/09/24 06:29:52;;;;;;;3.70;2.78;;;;;;;;;;2085200;28;20386;-77
2022/09/24 06:31:11;;;;;;;5.72;3.30;;;;;;;;;;2089562;28;20036;-79
2022/09/24 06:32:30;;;;;;;3.63;3.28;;;;;;;;;;2088679;28;20509;-80
2022/09/24 06:33:49;;;;;;;4.20;2.92;;;;;;;;;;2087600;28;20077;-79
2022/09/24 06:35:08;;;;;;;3.65;3.30;;;;;;;;;;2087540;28;20572;-78
2022/09/24 06:36:28;;;;;;;4.05;3.05;;;;;;;;;;2089036;28;20702;-79
2022/09/24 06:37:48;;;;;;;4.95;3.40;;;;;;;;;;2084820;28;20462;-81
2022/09/24 06:39:06;;;;;;;3.95;3.30;;;;;;;;;;2083498;28;20041;-79
2022/09/24 06:40:25;;;;;;;6.00;2.90;;;;;;;;;;2076566;28;20057;-79
2022/09/24 06:41:45;;;;;;;3.25;2.92;;;;;;;;;;2079379;28;20029;-78
2022/09/24 06:43:05;;;;;;;3.92;3.67;;;;;;;;;;2084646;28;20041;-78
2022/09/24 06:44:26;;;;;;;5.28;4.50;;;;;;;;;;2094883;28;20377;-78
2022/09/24 06:45:45;;;;;;;4.50;4.07;;;;;;;;;;2088120;28;20128;-78
2022/09/24 06:47:04;;;;;;;5.63;3.80;;;;;;;;;;2089165;28;20029;-77
2022/09/24 06:48:23;;;;;;;6.07;3.22;;;;;;;;;;2083693;28;20603;-77
2022/09/24 06:49:42;;;;;;;4.55;3.30;;;;;;;;;;2085749;28;20044;-77
2022/09/24 06:51:03;;;;;;;8.32;3.30;;;;;;;;;;2087429;28;20037;-77
2022/09/24 06:52:22;;;;;;;5.50;3.13;;;;;;;;;;2087754;28;20025;-77
2022/09/24 06:53:41;;;;;;;7.25;2.80;;;;;;;;;;2085220;28;20498;-78
2022/09/24 06:55:00;;;;;;;4.22;2.80;;;;;;;;;;2091692;28;20497;-77
2022/09/24 06:56:19;;;;;;;5.82;2.85;;;;;;;;;;2088607;28;20056;-79
2022/09/24 06:57:37;;;;;;;6.47;3.15;;;;;;;;;;2082378;28;20025;-77
2022/09/24 06:58:56;;;;;;;4.57;3.08;;;;;;;;;;2083698;28;20037;-77
2022/09/24 07:00:16;;;;;;;3.28;2.97;;;;;;;;;;2082966;28;20124;-78
2022/09/24 07:01:34;;;;;;;5.72;3.17;;;;;;;;;;2085190;28;20703;-77
2022/09/24 07:02:53;;;;;;;3.45;3.03;;;;;;;;;;2083360;28;20486;-76
2022/09/24 07:04:12;;;;;;;6.68;3.17;;;;;;;;;;2083785;28;20494;-77
2022/09/24 07:05:32;;;;;;;6.28;3.25;;;;;;;;;;2084369;28;20029;-79
2022/09/24 07:08:29;;;;;;;3.65;2.63;;;;;;;;;;2084012;28;20021;-78
2022/09/24 07:09:48;;;;;;;4.35;2.78;;;;;;;;;;2084728;28;20506;-77
2022/09/24 07:11:07;;;;;;;3.08;2.25;;;;;;;;;;2083968;28;20688;-77
2022/09/24 07:12:30;;;;;;;3.35;2.40;;;;;;;;;;2084346;28;20041;-77
2022/09/24 07:13:50;;;;;;;4.55;2.95;;;;;;;;;;2080809;28;20037;-78
2022/09/24 07:15:09;;;;;;;3.55;2.90;;;;;;;;;;2081427;28;20029;-77
2022/09/24 07:16:28;;;;;;;3.08;2.75;;;;;;;;;;2084172;28;20490;-78
2022/09/24 07:17:47;;;;;;;6.03;2.97;;;;;;;;;;2080847;28;20032;-78
2022/09/24 07:19:07;;;;;;;4.05;2.70;;;;;;;;;;2084709;28;20068;-77
2022/09/24 07:20:27;;;;;;;3.63;2.95;;;;;;;;;;2082876;28;20378;-76
2022/09/24 07:21:46;;;;;;;5.00;2.40;;;;;;;;;;2081881;28;20030;-76
2022/09/24 07:23:06;;;;;;;2.80;2.60;;;;;;;;;;2078963;28;20044;-75
2022/09/24 07:24:25;;;;;;;3.65;2.70;;;;;;;;;;2078388;28;20041;-76
2022/09/24 07:25:44;;;;;;;3.17;2.80;;;;;;;;;;2080949;28;20053;-77
2022/09/24 07:27:04;;;;;;;4.47;3.08;;;;;;;;;;2081001;28;20053;-77
2022/09/24 07:28:23;;;;;;;2.42;2.17;;;;;;;;;;2081375;28;20037;-77
2022/09/24 07:29:42;;;;;;;3.50;3.03;;;;;;;;;;2084458;28;20977;-77
2022/09/24 07:31:01;;;;;;;2.42;2.22;;;;;;;;;;2084044;28;20033;-78
2022/09/24 07:32:20;;;;;;;2.55;2.35;;;;;;;;;;2081458;28;20052;-77
2022/09/24 07:33:39;;;;;;;5.07;2.78;;;;;;;;;;2085215;28;20060;-77
2022/09/24 07:34:59;;;;;;;3.85;2.13;;;;;;;;;;2088082;28;20557;-78
2022/09/24 07:36:18;;;;;;;5.30;2.60;;;;;;;;;;2087769;28;20029;-77
2022/09/24 07:37:36;;;;;;;2.22;2.03;;;;;;;;;;2087932;28;20029;-78
2022/09/24 07:38:56;;;;;;;3.50;2.78;;;;;;;;;;2087232;28;20026;-78
2022/09/24 07:40:16;;;;;;;5.15;2.53;;;;;;;;;;2087786;28;20029;-78
2022/09/24 07:41:34;;;;;;;6.03;2.30;;;;;;;;;;2088190;28;20497;-77
2022/09/24 07:42:54;;;;;;;6.07;2.20;;;;;;;;;;2087676;28;20116;-78
2022/09/24 07:44:12;;;;;;;2.75;2.55;;;;;;;;;;2086946;28;20049;-78
2022/09/24 07:45:32;;;;;;;2.70;2.42;;;;;;;;;;2089107;28;20518;-77
2022/09/24 07:46:51;;;;;;;2.22;2.00;;;;;;;;;;2087753;28;20037;-78
2022/09/24 07:48:10;;;;;;;3.08;2.50;;;;;;;;;;2087041;28;20386;-78
2022/09/24 07:49:31;;;;;;;3.00;2.47;;;;;;;;;;2083271;28;20119;-78
2022/09/24 07:50:50;;;;;;;5.30;2.10;;;;;;;;;;2085179;28;20104;-78
2022/09/24 07:52:10;;;;;;;5.78;2.08;;;;;;;;;;2084762;28;20017;-77
2022/09/24 07:53:30;;;;;;;5.93;2.10;;;;;;;;;;2088398;28;20104;-77
2022/09/24 07:54:50;;;;;;;2.47;1.70;;;;;;;;;;2086661;28;20493;-77
2022/09/24 07:56:09;;;;;;;3.60;2.00;;;;;;;;;;2088957;28;20048;-77
2022/09/24 07:57:28;;;;;;;6.03;2.00;;;;;;;;;;2086511;28;20017;-78
2022/09/24 07:58:48;;;;;;;2.58;2.05;;;;;;;;;;2081947;28;20462;-78
2022/09/24 08:00:07;;;;;;;2.25;1.70;;;;;;;;;;2084828;28;20033;-78
2022/09/24 08:01:26;;;;;;;3.58;1.75;;;;;;;;;;2091576;28;20024;-78
2022/09/24 08:02:46;;;;;;;3.85;1.95;;;;;;;;;;2080501;28;20043;-79
2022/09/24 08:04:06;;;;;;;2.30;1.80;;;;;;;;;;2084543;28;20491;-78
2022/09/24 08:05:25;;;;;;;3.50;1.77;;;;;;;;;;2086283;28;20037;-78
2022/09/24 08:06:44;;;;;;;2.33;1.67;;;;;;;;;;2084090;28;20029;-78
2022/09/24 08:08:02;;;;;;;6.57;2.08;;;;;;;;;;2085808;28;20029;-78
2022/09/24 08:09:21;;;;;;;2.88;2.00;;;;;;;;;;2084752;28;20025;-78